createdAt,value
2019-01-16T00:02:14.321Z,7.81
2019-01-16T00:05:03.077Z,7.48
2019-01-16T00:07:54.774Z,7.59
2019-01-16T00:10:58.328Z,7.31
2019-01-16T00:14:02.442Z,7.55
2019-01-16T00:16:51.067Z,7.46
2019-01-16T00:19:40.276Z,7.66
2019-01-16T00:22:39.304Z,7.46
2019-01-16T00:25:28.316Z,7.79
2019-01-16T00:28:33.467Z,7.69
2019-01-16T00:31:40.348Z,7.73
2019-01-16T00:34:43.565Z,7.97
2019-01-16T00:37:47.373Z,7.86
2019-01-16T00:40:47.918Z,7.73
2019-01-16T00:43:36.617Z,7.47
2019-01-16T00:46:25.495Z,7.89
2019-01-16T00:49:20.664Z,7.52
2019-01-16T00:52:15.497Z,7.52
2019-01-16T00:55:15.730Z,7.33
2019-01-16T00:58:05.129Z,7.52
2019-01-16T01:00:54.052Z,7.76
2019-01-16T01:03:42.745Z,7.88
2019-01-16T01:06:31.401Z,7.85
2019-01-16T01:09:35.119Z,7.58
2019-01-16T01:12:32.651Z,7.44
2019-01-16T01:15:21.796Z,7.78
2019-01-16T01:18:22.681Z,7.93
2019-01-16T01:21:11.593Z,8.09
2019-01-16T01:24:03.186Z,7.77
2019-01-16T01:27:00.644Z,8.14
2019-01-16T01:29:49.559Z,8.05
2019-01-16T01:32:54.645Z,8.00
2019-01-16T01:35:48.860Z,8.03
2019-01-16T01:38:52.540Z,7.79
2019-01-16T01:41:57.233Z,8.02
2019-01-16T01:44:48.682Z,8.10
2019-01-16T01:47:42.695Z,7.90
2019-01-16T01:50:31.213Z,7.96
2019-01-16T01:53:25.905Z,8.01
2019-01-16T01:56:26.483Z,7.81
2019-01-16T01:59:30.315Z,7.76
2019-01-16T02:02:19.180Z,7.64
2019-01-16T02:05:25.170Z,7.58
2019-01-16T02:08:22.689Z,7.63
2019-01-16T02:11:11.288Z,7.90
2019-01-16T02:14:09.157Z,8.05
2019-01-16T02:17:04.003Z,7.89
2019-01-16T02:19:58.888Z,8.28
2019-01-16T02:22:47.408Z,7.96
2019-01-16T02:25:38.929Z,8.05
2019-01-16T02:28:30.435Z,8.20
2019-01-16T02:31:30.800Z,8.18
2019-01-16T02:34:19.862Z,8.18
2019-01-16T02:37:08.595Z,8.10
2019-01-16T02:39:57.549Z,7.98
2019-01-16T02:42:46.077Z,7.80
2019-01-16T02:45:50.166Z,7.82
2019-01-16T02:48:40.124Z,7.40
2019-01-16T02:51:37.129Z,7.31
2019-01-16T02:54:26.270Z,7.32
2019-01-16T02:57:20.654Z,7.49
2019-01-16T03:00:15.590Z,7.71
2019-01-16T03:03:12.989Z,7.56
2019-01-16T03:06:13.159Z,7.19
2019-01-16T03:09:18.604Z,7.45
2019-01-16T03:12:19.266Z,7.44
2019-01-16T03:15:21.805Z,7.77
2019-01-16T03:18:19.022Z,7.95
2019-01-16T03:21:13.798Z,7.95
2019-01-16T03:24:08.271Z,8.04
2019-01-16T03:27:03.105Z,7.62
2019-01-16T03:29:55.019Z,7.50
2019-01-16T03:32:59.467Z,7.50
2019-01-16T03:35:57.166Z,7.38
2019-01-16T03:38:48.274Z,7.27
2019-01-16T03:41:37.582Z,7.14
2019-01-16T03:44:29.201Z,7.23
2019-01-16T03:47:34.735Z,7.16
2019-01-16T03:50:23.487Z,7.13
2019-01-16T03:53:18.352Z,7.34
2019-01-16T03:56:19.280Z,7.56
2019-01-16T03:59:13.728Z,7.17
2019-01-16T04:02:10.904Z,7.07
2019-01-16T04:05:14.775Z,7.07
2019-01-16T04:08:03.273Z,7.80
2019-01-16T04:10:51.992Z,7.78
2019-01-16T04:13:55.650Z,7.43
2019-01-16T04:17:02.501Z,7.58
2019-01-16T04:20:00.269Z,7.27
2019-01-16T04:22:52.351Z,7.75
2019-01-16T04:25:46.643Z,7.60
2019-01-16T04:28:44.590Z,7.48
2019-01-16T04:31:49.117Z,7.51
2019-01-16T04:34:53.853Z,7.93
2019-01-16T04:37:58.446Z,7.77
2019-01-16T04:40:47.080Z,7.72
2019-01-16T04:43:47.713Z,7.86
2019-01-16T04:46:42.030Z,7.96
2019-01-16T04:49:30.819Z,7.85
2019-01-16T04:52:22.018Z,7.63
2019-01-16T04:55:28.461Z,7.52
2019-01-16T04:58:32.577Z,7.58
2019-01-16T05:01:24.106Z,8.03
2019-01-16T05:04:13.088Z,7.70
2019-01-16T05:07:16.781Z,7.61
2019-01-16T05:10:14.345Z,8.01
2019-01-16T05:13:19.436Z,8.14
2019-01-16T05:16:14.345Z,7.87
2019-01-16T05:19:20.648Z,7.19
2019-01-16T05:22:12.200Z,7.07
2019-01-16T05:25:18.554Z,7.30
2019-01-16T05:28:19.233Z,7.42
2019-01-16T05:31:16.775Z,7.63
2019-01-16T05:34:05.637Z,7.89
2019-01-16T05:37:03.509Z,7.88
2019-01-16T05:40:08.372Z,7.73
2019-01-16T05:43:13.221Z,7.78
2019-01-16T05:46:02.149Z,7.43
2019-01-16T05:48:53.599Z,7.67
2019-01-16T05:51:42.504Z,7.74
2019-01-16T05:54:31.098Z,7.34
2019-01-16T05:57:19.846Z,7.49
2019-01-16T06:00:11.727Z,7.13
2019-01-16T06:03:08.962Z,7.14
2019-01-16T06:06:00.369Z,6.93
2019-01-16T06:08:54.826Z,6.91
2019-01-16T06:11:49.108Z,7.09
2019-01-16T06:14:38.822Z,7.26
2019-01-16T06:17:27.696Z,7.16
2019-01-16T06:20:32.584Z,7.23
2019-01-16T06:23:27.317Z,7.12
2019-01-16T06:26:28.075Z,6.84
2019-01-16T06:29:26.183Z,7.53
2019-01-16T06:32:15.420Z,7.44
2019-01-16T06:35:19.243Z,7.45
2019-01-16T06:38:10.706Z,7.66
2019-01-16T06:40:59.650Z,7.74
2019-01-16T06:43:53.653Z,7.33
2019-01-16T06:46:42.242Z,7.45
2019-01-16T06:49:43.161Z,7.17
2019-01-16T06:52:34.624Z,7.03
2019-01-16T06:55:23.389Z,7.21
2019-01-16T06:58:27.388Z,7.11
2019-01-16T07:01:21.549Z,7.36
2019-01-16T07:04:16.497Z,7.51
2019-01-16T07:07:11.204Z,7.69
2019-01-16T07:10:14.860Z,7.47
2019-01-16T07:13:19.127Z,7.17
2019-01-16T07:16:17.221Z,6.99
2019-01-16T07:19:09.077Z,7.05
2019-01-16T07:22:09.739Z,7.28
2019-01-16T07:24:58.439Z,7.06
2019-01-16T07:28:05.374Z,6.90
2019-01-16T07:31:03.335Z,7.12
2019-01-16T07:33:52.124Z,7.34
2019-01-16T07:36:43.489Z,6.96
2019-01-16T07:39:31.982Z,6.92
2019-01-16T07:42:32.443Z,7.06
2019-01-16T07:45:33.650Z,7.23
2019-01-16T07:48:28.334Z,7.28
2019-01-16T07:51:26.062Z,7.09
2019-01-16T07:54:30.209Z,7.23
2019-01-16T07:57:21.764Z,7.44
2019-01-16T08:00:13.966Z,7.22
2019-01-16T08:03:14.537Z,7.21
2019-01-16T08:06:05.866Z,7.11
2019-01-16T08:09:09.573Z,7.25
2019-01-16T08:11:58.261Z,7.27
2019-01-16T08:15:02.788Z,6.96
2019-01-16T08:18:03.692Z,6.76
2019-01-16T08:21:08.792Z,6.53
2019-01-16T08:23:57.538Z,6.82
2019-01-16T08:27:04.420Z,7.11
2019-01-16T08:30:04.904Z,7.12
2019-01-16T08:33:05.140Z,7.09
2019-01-16T08:36:03.112Z,6.73
2019-01-16T08:39:00.381Z,7.03
2019-01-16T08:41:55.240Z,6.99
2019-01-16T08:44:58.923Z,7.25
2019-01-16T08:47:59.488Z,7.21
2019-01-16T08:51:04.537Z,7.36
2019-01-16T08:53:56.209Z,7.05
2019-01-16T08:56:44.996Z,6.76
2019-01-16T08:59:49.769Z,6.84
2019-01-16T09:02:53.514Z,6.91
2019-01-16T09:05:42.196Z,6.55
2019-01-16T09:08:47.238Z,6.62
2019-01-16T09:11:45.121Z,6.33
2019-01-16T09:14:37.086Z,6.74
2019-01-16T09:17:26.111Z,7.02
2019-01-16T09:20:18.129Z,7.25
2019-01-16T09:23:15.623Z,7.31
2019-01-16T09:26:20.931Z,7.47
2019-01-16T09:29:15.327Z,7.81
2019-01-16T09:32:13.034Z,7.94
2019-01-16T09:35:04.740Z,7.41
2019-01-16T09:38:11.331Z,7.45
2019-01-16T09:41:00.247Z,7.87
2019-01-16T09:44:03.791Z,7.38
2019-01-16T09:46:54.845Z,7.34
2019-01-16T09:49:55.702Z,7.20
2019-01-16T09:52:53.293Z,7.15
2019-01-16T09:55:45.323Z,7.08
2019-01-16T09:58:33.940Z,6.95
2019-01-16T10:01:28.276Z,7.05
2019-01-16T10:04:26.027Z,7.47
2019-01-16T10:07:30.061Z,7.47
2019-01-16T10:10:21.266Z,7.82
2019-01-16T10:13:15.166Z,7.63
2019-01-16T10:16:06.544Z,7.46
2019-01-16T10:18:58.400Z,7.45
2019-01-16T10:21:53.174Z,7.51
2019-01-16T10:24:42.359Z,7.44
2019-01-16T10:27:31.364Z,7.48
2019-01-16T10:30:38.148Z,7.80
2019-01-16T10:33:26.907Z,7.40
2019-01-16T10:36:18.756Z,7.56
2019-01-16T10:39:09.329Z,7.52
2019-01-16T10:41:58.014Z,7.29
2019-01-16T10:44:52.592Z,7.51
2019-01-16T10:47:41.231Z,7.25
2019-01-16T10:50:32.436Z,7.34
2019-01-16T10:53:24.079Z,7.50
2019-01-16T10:56:12.908Z,7.54
2019-01-16T10:59:01.989Z,7.43
2019-01-16T11:01:50.831Z,7.67
2019-01-16T11:04:51.725Z,7.93
2019-01-16T11:07:40.633Z,7.10
2019-01-16T11:10:35.131Z,7.06
2019-01-16T11:13:26.698Z,6.99
2019-01-16T11:16:20.850Z,7.51
2019-01-16T11:19:22.009Z,7.63
2019-01-16T11:22:16.549Z,7.60
2019-01-16T11:25:22.218Z,7.85
2019-01-16T11:28:11.436Z,7.95
2019-01-16T11:31:08.916Z,8.22
2019-01-16T11:33:57.486Z,7.66
2019-01-16T11:36:58.141Z,7.87
2019-01-16T11:39:49.116Z,7.77
2019-01-16T11:42:40.638Z,7.35
2019-01-16T11:45:41.090Z,7.29
2019-01-16T11:48:42.210Z,7.91
2019-01-16T11:51:45.877Z,8.01
2019-01-16T11:54:34.556Z,7.38
2019-01-16T11:57:34.773Z,7.71
2019-01-16T12:00:32.594Z,7.48
2019-01-16T12:03:21.470Z,7.20
2019-01-16T12:06:24.839Z,7.06
2019-01-16T12:09:31.643Z,7.24
2019-01-16T12:12:35.040Z,7.11
2019-01-16T12:15:35.860Z,6.70
2019-01-16T12:18:36.513Z,7.31
2019-01-16T12:21:26.610Z,7.22
2019-01-16T12:24:33.426Z,7.06
2019-01-16T12:27:22.124Z,6.96
2019-01-16T12:30:26.284Z,6.97
2019-01-16T12:33:17.736Z,7.01
2019-01-16T12:36:19.018Z,7.04
2019-01-16T12:39:26.122Z,6.88
2019-01-16T12:42:20.718Z,6.84
2019-01-16T12:45:12.522Z,7.10
2019-01-16T12:48:10.246Z,6.94
2019-01-16T12:51:02.017Z,6.88
2019-01-16T12:53:59.994Z,6.66
2019-01-16T12:56:51.594Z,6.79
2019-01-16T12:59:40.727Z,7.03
2019-01-16T13:02:32.462Z,7.29
2019-01-16T13:05:33.375Z,7.58
2019-01-16T13:08:36.690Z,7.80
2019-01-16T13:11:25.928Z,7.49
2019-01-16T13:14:15.102Z,6.79
2019-01-16T13:17:06.758Z,6.77
2019-01-16T13:19:55.613Z,7.40
2019-01-16T13:22:46.235Z,7.62
2019-01-16T13:25:46.574Z,7.91
2019-01-16T13:28:40.885Z,7.67
2019-01-16T13:31:29.533Z,7.29
2019-01-16T13:34:20.999Z,7.22
2019-01-16T13:37:09.868Z,6.92
2019-01-16T13:39:58.856Z,6.90
2019-01-16T13:43:03.693Z,7.04
2019-01-16T13:46:04.314Z,7.18
2019-01-16T13:49:10.977Z,7.09
2019-01-16T13:52:00.440Z,7.05
2019-01-16T13:55:05.090Z,7.42
2019-01-16T13:58:05.873Z,7.53
2019-01-16T14:00:57.143Z,7.65
2019-01-16T14:03:55.002Z,7.64
2019-01-16T14:06:50.010Z,7.46
2019-01-16T14:09:38.675Z,7.46
2019-01-16T14:12:27.567Z,7.27
2019-01-16T14:15:26.162Z,7.31
2019-01-16T14:18:14.941Z,7.08
2019-01-16T14:21:12.486Z,7.49
2019-01-16T14:24:01.456Z,7.44
2019-01-16T14:26:53.017Z,7.13
2019-01-16T14:29:42.413Z,6.80
2019-01-16T14:32:31.437Z,6.38
2019-01-16T14:35:28.931Z,6.43
2019-01-16T14:38:20.597Z,7.08
2019-01-16T14:41:27.024Z,7.24
2019-01-16T14:44:18.801Z,7.00
2019-01-16T14:47:13.377Z,7.16
2019-01-16T14:50:08.108Z,6.97
2019-01-16T14:53:13.007Z,7.23
2019-01-16T14:56:07.649Z,7.32
2019-01-16T14:58:56.248Z,7.36
2019-01-16T15:01:47.593Z,7.38
2019-01-16T15:04:39.972Z,7.19
2019-01-16T15:07:38.261Z,7.07
2019-01-16T15:10:36.139Z,6.92
2019-01-16T15:13:25.262Z,6.80
2019-01-16T15:16:20.198Z,7.09
2019-01-16T15:19:20.577Z,7.21
2019-01-16T15:22:14.838Z,7.02
2019-01-16T15:25:09.332Z,7.11
2019-01-16T15:27:57.754Z,7.21
2019-01-16T15:31:01.659Z,7.27
2019-01-16T15:33:50.712Z,7.20
2019-01-16T15:36:39.762Z,7.21
2019-01-16T15:39:44.419Z,6.94
2019-01-16T15:42:48.835Z,6.68
2019-01-16T15:45:49.391Z,6.91
2019-01-16T15:48:41.002Z,6.57
2019-01-16T15:51:45.696Z,6.86
2019-01-16T15:54:40.471Z,6.70
2019-01-16T15:57:29.373Z,6.90
2019-01-16T16:00:18.822Z,6.92
2019-01-16T16:03:10.134Z,6.58
2019-01-16T16:05:58.990Z,6.50
2019-01-16T16:08:50.380Z,6.08
2019-01-16T16:11:44.730Z,6.38
2019-01-16T16:14:39.150Z,6.03
2019-01-16T16:17:28.000Z,5.83
2019-01-16T16:20:26.030Z,6.11
2019-01-16T16:23:14.770Z,6.32
2019-01-16T16:26:15.838Z,6.03
2019-01-16T16:29:04.492Z,5.99
2019-01-16T16:31:53.120Z,6.13
2019-01-16T16:34:47.267Z,6.39
2019-01-16T16:37:52.088Z,6.33
2019-01-16T16:40:41.019Z,6.57
2019-01-16T16:43:45.761Z,6.30
2019-01-16T16:46:38.675Z,6.66
2019-01-16T16:49:45.278Z,6.93
2019-01-16T16:52:36.684Z,6.73
2019-01-16T16:55:25.348Z,6.43
2019-01-16T16:58:32.173Z,6.46
2019-01-16T17:01:26.826Z,6.44
2019-01-16T17:04:15.789Z,6.55
2019-01-16T17:07:20.493Z,6.52
2019-01-16T17:10:15.347Z,6.83
2019-01-16T17:13:04.140Z,6.54
2019-01-16T17:16:01.724Z,6.37
2019-01-16T17:18:50.198Z,6.06
2019-01-16T17:21:41.942Z,6.44
2019-01-16T17:24:33.396Z,6.61
2019-01-16T17:27:38.397Z,6.62
2019-01-16T17:30:42.131Z,6.40
2019-01-16T17:33:30.882Z,6.61
2019-01-16T17:36:19.569Z,6.91
2019-01-16T17:39:15.376Z,6.59
2019-01-16T17:42:04.113Z,6.50
2019-01-16T17:44:53.129Z,6.37
2019-01-16T17:47:41.728Z,6.13
2019-01-16T17:50:48.510Z,6.39
2019-01-16T17:53:48.949Z,6.50
2019-01-16T17:56:58.493Z,6.30
2019-01-16T18:00:05.289Z,6.61
2019-01-16T18:02:54.004Z,6.67
2019-01-16T18:05:59.026Z,6.54
2019-01-16T18:08:50.612Z,6.05
2019-01-16T18:11:57.872Z,6.39
2019-01-16T18:15:04.227Z,6.61
2019-01-16T18:18:11.055Z,6.43
2019-01-16T18:20:59.968Z,6.10
2019-01-16T18:24:07.272Z,6.08
2019-01-16T18:26:55.814Z,5.96
2019-01-16T18:29:50.303Z,5.99
2019-01-16T18:32:39.297Z,6.05
2019-01-16T18:35:40.242Z,6.20
2019-01-16T18:38:29.480Z,6.40
2019-01-16T18:41:36.502Z,6.55
2019-01-16T18:44:37.247Z,6.42
2019-01-16T18:47:28.808Z,6.11
2019-01-16T18:50:20.459Z,6.36
2019-01-16T18:53:18.672Z,6.70
2019-01-16T18:56:13.003Z,6.77
2019-01-16T18:59:10.972Z,6.60
2019-01-16T19:02:00.286Z,6.61
2019-01-16T19:04:49.042Z,6.77
2019-01-16T19:07:54.096Z,6.61
2019-01-16T19:10:42.862Z,6.88
2019-01-16T19:13:40.222Z,6.98
2019-01-16T19:16:38.196Z,6.91
2019-01-16T19:19:27.461Z,6.78
2019-01-16T19:22:16.321Z,6.98
2019-01-16T19:25:20.945Z,6.98
2019-01-16T19:28:12.527Z,6.70
2019-01-16T19:31:03.777Z,6.42
2019-01-16T19:33:55.225Z,6.41
2019-01-16T19:36:44.428Z,6.49
2019-01-16T19:39:36.603Z,6.23
2019-01-16T19:42:25.708Z,6.44
2019-01-16T19:45:20.336Z,6.05
2019-01-16T19:48:14.656Z,6.17
2019-01-16T19:51:03.394Z,5.57
2019-01-16T19:53:55.412Z,5.78
2019-01-16T19:56:53.493Z,5.88
2019-01-16T19:59:45.140Z,6.24
2019-01-16T20:02:33.960Z,6.40
2019-01-16T20:05:28.919Z,6.30
2019-01-16T20:08:17.783Z,6.34
2019-01-16T20:11:12.779Z,6.58
2019-01-16T20:14:01.497Z,6.54
2019-01-16T20:17:02.416Z,6.74
2019-01-16T20:19:53.956Z,6.81
2019-01-16T20:22:51.548Z,6.56
2019-01-16T20:25:56.333Z,6.49
2019-01-16T20:28:47.844Z,6.44
2019-01-16T20:31:42.551Z,6.70
2019-01-16T20:34:34.244Z,7.01
2019-01-16T20:37:25.783Z,7.04
2019-01-16T20:40:15.189Z,6.93
2019-01-16T20:43:12.445Z,6.80
2019-01-16T20:46:04.138Z,6.69
2019-01-16T20:49:11.082Z,6.41
2019-01-16T20:52:11.840Z,6.54
2019-01-16T20:55:09.446Z,6.43
2019-01-16T20:58:14.588Z,6.35
2019-01-16T21:01:09.066Z,6.34
2019-01-16T21:04:15.965Z,6.63
2019-01-16T21:07:13.550Z,6.76
2019-01-16T21:10:05.431Z,6.65
2019-01-16T21:13:00.212Z,6.22
2019-01-16T21:15:51.988Z,5.97
2019-01-16T21:18:55.244Z,6.04
2019-01-16T21:21:44.172Z,6.08
2019-01-16T21:24:48.570Z,6.04
2019-01-16T21:27:37.395Z,6.23
2019-01-16T21:30:41.182Z,6.04
2019-01-16T21:33:30.047Z,6.02
2019-01-16T21:36:36.985Z,6.09
2019-01-16T21:39:43.829Z,5.86
2019-01-16T21:42:32.579Z,5.90
2019-01-16T21:45:26.874Z,5.86
2019-01-16T21:48:21.745Z,5.49
2019-01-16T21:51:10.305Z,5.35
2019-01-16T21:54:13.769Z,5.47
2019-01-16T21:57:18.663Z,5.98
2019-01-16T22:00:34.281Z,6.01
2019-01-16T22:03:26.001Z,5.38
2019-01-16T22:06:17.629Z,5.38
2019-01-16T22:09:15.010Z,5.47
2019-01-16T22:12:08.483Z,5.66
2019-01-16T22:14:59.973Z,5.75
2019-01-16T22:17:51.835Z,5.69
2019-01-16T22:20:40.845Z,5.73
2019-01-16T22:23:38.280Z,5.67
2019-01-16T22:26:41.765Z,5.87
2019-01-16T22:29:46.242Z,5.81
2019-01-16T22:32:35.144Z,5.82
2019-01-16T22:35:40.217Z,6.22
2019-01-16T22:38:40.857Z,6.39
2019-01-16T22:41:35.990Z,6.06
2019-01-16T22:44:36.566Z,6.03
2019-01-16T22:47:40.194Z,5.78
2019-01-16T22:50:35.342Z,5.96
2019-01-16T22:53:43.414Z,6.01
2019-01-16T22:56:32.665Z,6.00
2019-01-16T22:59:30.249Z,6.06
2019-01-16T23:02:35.081Z,6.06
2019-01-16T23:05:24.051Z,5.94
2019-01-16T23:08:28.121Z,5.63
2019-01-16T23:11:33.235Z,5.75
2019-01-16T23:14:38.104Z,6.01
2019-01-16T23:17:35.665Z,5.89
2019-01-16T23:20:27.088Z,5.89
2019-01-16T23:23:17.128Z,5.93
2019-01-16T23:26:21.840Z,5.90
2019-01-16T23:29:20.401Z,5.93
2019-01-16T23:32:09.248Z,5.89
2019-01-16T23:34:58.123Z,6.11
2019-01-16T23:37:46.969Z,6.40
2019-01-16T23:40:35.992Z,6.27
2019-01-16T23:43:24.955Z,6.09
2019-01-16T23:46:32.163Z,6.37
2019-01-16T23:49:27.167Z,6.54
2019-01-16T23:52:15.724Z,5.78
2019-01-16T23:55:19.827Z,6.02
2019-01-16T23:58:11.377Z,5.75
